sensor_id;sensor_type;location;lat;lon;timestamp;pressure;altitude;pressure_sealevel;temperature;humidity
54808;BME280;40708;50.364;7.550;2023-07-29T00:02:07;103097.13;;;18.49;100.00
54808;BME280;40708;50.364;7.550;2023-07-29T00:04:32;103102.56;;;18.51;100.00
54808;BME280;40708;50.364;7.550;2023-07-29T00:06:57;103097.16;;;18.52;100.00
54808;BME280;40708;50.364;7.550;2023-07-29T00:09:22;103099.03;;;18.56;100.00
54808;BME280;40708;50.364;7.550;2023-07-29T00:11:48;103074.81;;;18.58;100.00
54808;BME280;40708;50.364;7.550;2023-07-29T00:14:13;103067.63;;;18.55;100.00
54808;BME280;40708;50.364;7.550;2023-07-29T00:16:38;103058.63;;;18.50;100.00
54808;BME280;40708;50.364;7.550;2023-07-29T00:19:03;103066.59;;;18.45;100.00
54808;BME280;40708;50.364;7.550;2023-07-29T00:21:29;103071.09;;;18.47;100.00
54808;BME280;40708;50.364;7.550;2023-07-29T00:23:54;103073.78;;;18.45;100.00
54808;BME280;40708;50.364;7.550;2023-07-29T00:26:22;103080.94;;;18.46;100.00
54808;BME280;40708;50.364;7.550;2023-07-29T00:28:47;103089.00;;;18.44;100.00
54808;BME280;40708;50.364;7.550;2023-07-29T00:31:13;103092.56;;;18.43;100.00
54808;BME280;40708;50.364;7.550;2023-07-29T00:33:38;103100.63;;;18.43;100.00
54808;BME280;40708;50.364;7.550;2023-07-29T00:36:03;103101.53;;;18.44;100.00
54808;BME280;40708;50.364;7.550;2023-07-29T00:38:29;103096.13;;;18.39;100.00
54808;BME280;40708;50.364;7.550;2023-07-29T00:40:57;103089.78;;;18.33;100.00
54808;BME280;40708;50.364;7.550;2023-07-29T00:43:22;103094.16;;;18.26;100.00
54808;BME280;40708;50.364;7.550;2023-07-29T00:45:47;103107.59;;;18.23;100.00
54808;BME280;40708;50.364;7.550;2023-07-29T00:48:12;103128.13;;;18.18;100.00
54808;BME280;40708;50.364;7.550;2023-07-29T00:50:38;103132.59;;;18.15;100.00
54808;BME280;40708;50.364;7.550;2023-07-29T00:53:03;103152.25;;;18.12;100.00
54808;BME280;40708;50.364;7.550;2023-07-29T00:55:29;103162.09;;;18.13;100.00
54808;BME280;40708;50.364;7.550;2023-07-29T00:57:54;103163.00;;;18.14;100.00
54808;BME280;40708;50.364;7.550;2023-07-29T01:00:20;103164.84;;;18.16;100.00
54808;BME280;40708;50.364;7.550;2023-07-29T01:02:46;103184.59;;;18.21;100.00
54808;BME280;40708;50.364;7.550;2023-07-29T01:05:13;103183.69;;;18.21;100.00
54808;BME280;40708;50.364;7.550;2023-07-29T01:07:47;103184.59;;;18.21;100.00
54808;BME280;40708;50.364;7.550;2023-07-29T01:13:48;103189.22;;;18.31;100.00
54808;BME280;40708;50.364;7.550;2023-07-29T01:16:19;103187.41;;;18.32;100.00
54808;BME280;40708;50.364;7.550;2023-07-29T01:18:47;103188.41;;;18.37;100.00
54808;BME280;40708;50.364;7.550;2023-07-29T01:21:16;103190.25;;;18.42;100.00
54808;BME280;40708;50.364;7.550;2023-07-29T01:23:42;103184.00;;;18.47;100.00
54808;BME280;40708;50.364;7.550;2023-07-29T01:26:07;103191.31;;;18.55;100.00
54808;BME280;40708;50.364;7.550;2023-07-29T01:28:33;103181.50;;;18.59;100.00
54808;BME280;40708;50.364;7.550;2023-07-29T01:31:13;103181.53;;;18.65;100.00
54808;BME280;40708;50.364;7.550;2023-07-29T01:33:53;103154.75;;;18.72;100.00
54808;BME280;40708;50.364;7.550;2023-07-29T01:36:22;103126.97;;;18.75;100.00
54808;BME280;40708;50.364;7.550;2023-07-29T01:38:51;103103.69;;;18.77;100.00
54808;BME280;40708;50.364;7.550;2023-07-29T01:41:20;103074.06;;;18.74;100.00
54808;BME280;40708;50.364;7.550;2023-07-29T01:43:46;103057.91;;;18.71;100.00
54808;BME280;40708;50.364;7.550;2023-07-29T01:46:12;103044.47;;;18.72;100.00
54808;BME280;40708;50.364;7.550;2023-07-29T01:48:38;103037.25;;;18.67;100.00
54808;BME280;40708;50.364;7.550;2023-07-29T01:51:03;103029.16;;;18.65;100.00
54808;BME280;40708;50.364;7.550;2023-07-29T01:53:29;103021.97;;;18.61;100.00
54808;BME280;40708;50.364;7.550;2023-07-29T01:55:55;103013.91;;;18.61;100.00
54808;BME280;40708;50.364;7.550;2023-07-29T01:58:22;103008.47;;;18.55;100.00
54808;BME280;40708;50.364;7.550;2023-07-29T02:00:47;103004.88;;;18.53;100.00
54808;BME280;40708;50.364;7.550;2023-07-29T02:03:12;102994.09;;;18.52;100.00
54808;BME280;40708;50.364;7.550;2023-07-29T02:05:38;102992.31;;;18.52;100.00
54808;BME280;40708;50.364;7.550;2023-07-29T02:08:03;102986.94;;;18.54;100.00
54808;BME280;40708;50.364;7.550;2023-07-29T02:10:28;102976.19;;;18.54;100.00
54808;BME280;40708;50.364;7.550;2023-07-29T02:12:54;102988.75;;;18.53;100.00
54808;BME280;40708;50.364;7.550;2023-07-29T02:15:19;102986.94;;;18.54;100.00
54808;BME280;40708;50.364;7.550;2023-07-29T02:17:44;102992.34;;;18.57;100.00
54808;BME280;40708;50.364;7.550;2023-07-29T02:20:10;102989.66;;;18.55;100.00
54808;BME280;40708;50.364;7.550;2023-07-29T02:22:35;102986.97;;;18.57;100.00
54808;BME280;40708;50.364;7.550;2023-07-29T02:25:01;102979.78;;;18.53;100.00
54808;BME280;40708;50.364;7.550;2023-07-29T02:27:26;102978.88;;;18.51;100.00
54808;BME280;40708;50.364;7.550;2023-07-29T02:29:55;102960.03;;;18.48;100.00
54808;BME280;40708;50.364;7.550;2023-07-29T02:32:21;102945.63;;;18.44;100.00
54808;BME280;40708;50.364;7.550;2023-07-29T02:34:46;102936.63;;;18.39;100.00
54808;BME280;40708;50.364;7.550;2023-07-29T02:37:11;102933.91;;;18.37;100.00
54808;BME280;40708;50.364;7.550;2023-07-29T02:39:37;102937.50;;;18.36;100.00
54808;BME280;40708;50.364;7.550;2023-07-29T02:42:03;102935.66;;;18.31;100.00
54808;BME280;40708;50.364;7.550;2023-07-29T02:44:28;102941.00;;;18.23;100.00
54808;BME280;40708;50.364;7.550;2023-07-29T02:46:53;102949.88;;;18.19;100.00
54808;BME280;40708;50.364;7.550;2023-07-29T02:49:21;102960.63;;;18.15;100.00
54808;BME280;40708;50.364;7.550;2023-07-29T02:51:46;102956.97;;;18.13;100.00
54808;BME280;40708;50.364;7.550;2023-07-29T02:54:11;102956.97;;;18.07;100.00
54808;BME280;40708;50.364;7.550;2023-07-29T02:56:37;102959.56;;;18.02;100.00
54808;BME280;40708;50.364;7.550;2023-07-29T02:59:02;102960.41;;;17.97;100.00
54808;BME280;40708;50.364;7.550;2023-07-29T03:01:27;102967.56;;;17.93;100.00
54808;BME280;40708;50.364;7.550;2023-07-29T03:03:52;102946.91;;;17.88;100.00
54808;BME280;40708;50.364;7.550;2023-07-29T03:06:18;102962.13;;;17.89;100.00
54808;BME280;40708;50.364;7.550;2023-07-29T03:08:44;102954.97;;;17.89;100.00
54808;BME280;40708;50.364;7.550;2023-07-29T03:11:12;102955.84;;;17.87;100.00
54808;BME280;40708;50.364;7.550;2023-07-29T03:13:37;102949.66;;;17.97;100.00
54808;BME280;40708;50.364;7.550;2023-07-29T03:16:13;102972.94;;;17.95;100.00
54808;BME280;40708;50.364;7.550;2023-07-29T03:18:40;102975.63;;;17.95;100.00
54808;BME280;40708;50.364;7.550;2023-07-29T03:21:05;102975.56;;;17.89;100.00
54808;BME280;40708;50.364;7.550;2023-07-29T03:23:32;102964.81;;;17.87;100.00
54808;BME280;40708;50.364;7.550;2023-07-29T03:25:59;102981.84;;;17.89;100.00
54808;BME280;40708;50.364;7.550;2023-07-29T03:28:26;102992.63;;;17.91;100.00
54808;BME280;40708;50.364;7.550;2023-07-29T03:30:55;103014.31;;;18.13;100.00
54808;BME280;40708;50.364;7.550;2023-07-29T03:33:21;103021.53;;;18.19;100.00
54808;BME280;40708;50.364;7.550;2023-07-29T03:35:47;103019.81;;;18.27;100.00
54808;BME280;40708;50.364;7.550;2023-07-29T03:38:12;103026.16;;;18.35;100.00
54808;BME280;40708;50.364;7.550;2023-07-29T03:40:39;103009.13;;;18.34;100.00
54808;BME280;40708;50.364;7.550;2023-07-29T03:43:04;102994.84;;;18.37;100.00
54808;BME280;40708;50.364;7.550;2023-07-29T03:45:30;102993.97;;;18.39;100.00
54808;BME280;40708;50.364;7.550;2023-07-29T03:47:55;102985.88;;;18.38;100.00
54808;BME280;40708;50.364;7.550;2023-07-29T03:50:20;102970.66;;;18.38;100.00
54808;BME280;40708;50.364;7.550;2023-07-29T03:52:46;102974.31;;;18.45;100.00
54808;BME280;40708;50.364;7.550;2023-07-29T03:55:11;102961.78;;;18.47;100.00
54808;BME280;40708;50.364;7.550;2023-07-29T03:57:36;102965.44;;;18.51;100.00
54808;BME280;40708;50.364;7.550;2023-07-29T04:00:02;102949.22;;;18.46;100.00
54808;BME280;40708;50.364;7.550;2023-07-29T04:02:28;102944.75;;;18.45;100.00
54808;BME280;40708;50.364;7.550;2023-07-29T04:04:53;102957.34;;;18.54;100.00
54808;BME280;40708;50.364;7.550;2023-07-29T04:07:19;102952.06;;;18.63;100.00
54808;BME280;40708;50.364;7.550;2023-07-29T04:09:44;102948.50;;;18.68;100.00
54808;BME280;40708;50.364;7.550;2023-07-29T04:12:10;102937.78;;;18.73;100.00
54808;BME280;40708;50.364;7.550;2023-07-29T04:14:35;102935.13;;;18.74;100.00
54808;BME280;40708;50.364;7.550;2023-07-29T04:17:00;102916.31;;;18.79;100.00
54808;BME280;40708;50.364;7.550;2023-07-29T04:19:25;102918.13;;;18.83;100.00
54808;BME280;40708;50.364;7.550;2023-07-29T04:21:51;102903.75;;;18.81;100.00
54808;BME280;40708;50.364;7.550;2023-07-29T04:24:16;102903.78;;;18.87;100.00
54808;BME280;40708;50.364;7.550;2023-07-29T04:26:41;102900.22;;;18.92;100.00
54808;BME280;40708;50.364;7.550;2023-07-29T04:29:07;102892.22;;;19.05;100.00
54808;BME280;40708;50.364;7.550;2023-07-29T04:31:32;102874.31;;;19.13;100.00
54808;BME280;40708;50.364;7.550;2023-07-29T04:33:57;102842.97;;;19.27;100.00
54808;BME280;40708;50.364;7.550;2023-07-29T04:36:22;102786.44;;;19.36;100.00
54808;BME280;40708;50.364;7.550;2023-07-29T04:38:48;102746.09;;;19.42;100.00
54808;BME280;40708;50.364;7.550;2023-07-29T04:41:14;102697.63;;;19.52;100.00
54808;BME280;40708;50.364;7.550;2023-07-29T04:43:39;102639.28;;;19.57;100.00
54808;BME280;40708;50.364;7.550;2023-07-29T04:46:07;102564.75;;;19.63;100.00
54808;BME280;40708;50.364;7.550;2023-07-29T04:48:35;102523.44;;;19.65;100.00
54808;BME280;40708;50.364;7.550;2023-07-29T04:51:01;102487.53;;;19.71;100.00
54808;BME280;40708;50.364;7.550;2023-07-29T04:53:26;102426.47;;;19.71;100.00
54808;BME280;40708;50.364;7.550;2023-07-29T04:55:51;102388.75;;;19.76;100.00
54808;BME280;40708;50.364;7.550;2023-07-29T04:58:17;102334.00;;;19.72;100.00
54808;BME280;40708;50.364;7.550;2023-07-29T05:00:42;102303.47;;;19.73;100.00
54808;BME280;40708;50.364;7.550;2023-07-29T05:03:07;102272.03;;;19.75;100.00
54808;BME280;40708;50.364;7.550;2023-07-29T05:05:32;102254.97;;;19.73;100.00
54808;BME280;40708;50.364;7.550;2023-07-29T05:07:58;102229.88;;;19.73;100.00
54808;BME280;40708;50.364;7.550;2023-07-29T05:10:23;102225.38;;;19.72;100.00
54808;BME280;40708;50.364;7.550;2023-07-29T05:12:48;102226.25;;;19.75;100.00
54808;BME280;40708;50.364;7.550;2023-07-29T05:15:14;102210.13;;;19.72;100.00
54808;BME280;40708;50.364;7.550;2023-07-29T05:17:39;102216.44;;;19.68;100.00
54808;BME280;40708;50.364;7.550;2023-07-29T05:20:05;102239.81;;;19.65;100.00
54808;BME280;40708;50.364;7.550;2023-07-29T05:22:30;102222.78;;;19.64;100.00
54808;BME280;40708;50.364;7.550;2023-07-29T05:24:55;102234.44;;;19.63;100.00
54808;BME280;40708;50.364;7.550;2023-07-29T05:27:21;102247.94;;;19.58;100.00
54808;BME280;40708;50.364;7.550;2023-07-29T05:29:46;102264.13;;;19.55;100.00
54808;BME280;40708;50.364;7.550;2023-07-29T05:32:11;102281.25;;;19.48;100.00
54808;BME280;40708;50.364;7.550;2023-07-29T05:34:37;102326.13;;;19.42;100.00
54808;BME280;40708;50.364;7.550;2023-07-29T05:37:02;102352.16;;;19.41;100.00
54808;BME280;40708;50.364;7.550;2023-07-29T05:39:28;102371.91;;;19.39;100.00
54808;BME280;40708;50.364;7.550;2023-07-29T05:41:53;102371.88;;;19.36;100.00
54808;BME280;40708;50.364;7.550;2023-07-29T05:44:18;102388.06;;;19.33;100.00
54808;BME280;40708;50.364;7.550;2023-07-29T05:46:43;102422.16;;;19.34;100.00
54808;BME280;40708;50.364;7.550;2023-07-29T05:49:09;102441.03;;;19.29;100.00
54808;BME280;40708;50.364;7.550;2023-07-29T05:51:34;102489.47;;;19.28;100.00
54808;BME280;40708;50.364;7.550;2023-07-29T05:53:59;102528.94;;;19.29;100.00
54808;BME280;40708;50.364;7.550;2023-07-29T05:56:24;102564.84;;;19.29;100.00
54808;BME280;40708;50.364;7.550;2023-07-29T05:58:50;102588.16;;;19.32;100.00
54808;BME280;40708;50.364;7.550;2023-07-29T06:01:15;102603.38;;;19.33;100.00
54808;BME280;40708;50.364;7.550;2023-07-29T06:03:40;102618.66;;;19.38;100.00
54808;BME280;40708;50.364;7.550;2023-07-29T06:06:05;102619.56;;;19.43;100.00
54808;BME280;40708;50.364;7.550;2023-07-29T06:08:31;102621.34;;;19.49;100.00
54808;BME280;40708;50.364;7.550;2023-07-29T06:10:59;102607.00;;;19.48;100.00
54808;BME280;40708;50.364;7.550;2023-07-29T06:13:24;102600.69;;;19.57;100.00
54808;BME280;40708;50.364;7.550;2023-07-29T06:15:49;102580.03;;;19.54;100.00
54808;BME280;40708;50.364;7.550;2023-07-29T06:18:15;102574.66;;;19.54;100.00
54808;BME280;40708;50.364;7.550;2023-07-29T06:20:40;102571.09;;;19.54;100.00
54808;BME280;40708;50.364;7.550;2023-07-29T06:23:06;102569.28;;;19.56;100.00
54808;BME280;40708;50.364;7.550;2023-07-29T06:25:32;102542.34;;;19.56;100.00
54808;BME280;40708;50.364;7.550;2023-07-29T06:27:57;102522.59;;;19.57;100.00
54808;BME280;40708;50.364;7.550;2023-07-29T06:30:23;102528.88;;;19.60;100.00
54808;BME280;40708;50.364;7.550;2023-07-29T06:32:48;102518.97;;;19.63;100.00
54808;BME280;40708;50.364;7.550;2023-07-29T06:35:14;102519.84;;;19.69;100.00
54808;BME280;40708;50.364;7.550;2023-07-29T06:37:39;102530.59;;;19.80;100.00
54808;BME280;40708;50.364;7.550;2023-07-29T06:40:05;102516.22;;;19.84;100.00
54808;BME280;40708;50.364;7.550;2023-07-29T06:42:30;102474.91;;;19.83;100.00
54808;BME280;40708;50.364;7.550;2023-07-29T06:44:55;102437.19;;;19.86;100.00
54808;BME280;40708;50.364;7.550;2023-07-29T06:47:21;102418.25;;;19.97;100.00
54808;BME280;40708;50.364;7.550;2023-07-29T06:49:46;102374.19;;;20.01;100.00
54808;BME280;40708;50.364;7.550;2023-07-29T06:52:12;102349.88;;;20.07;100.00
54808;BME280;40708;50.364;7.550;2023-07-29T06:54:37;102322.84;;;20.17;100.00
54808;BME280;40708;50.364;7.550;2023-07-29T06:57:03;102266.25;;;20.17;100.00
54808;BME280;40708;50.364;7.550;2023-07-29T06:59:28;102232.91;;;20.28;100.00
54808;BME280;40708;50.364;7.550;2023-07-29T07:01:53;102182.44;;;20.43;100.00
54808;BME280;40708;50.364;7.550;2023-07-29T07:04:18;102129.06;;;20.66;100.00
54808;BME280;40708;50.364;7.550;2023-07-29T07:06:44;102024.50;;;20.82;100.00
54808;BME280;40708;50.364;7.550;2023-07-29T07:09:09;101942.25;;;21.06;100.00
54808;BME280;40708;50.364;7.550;2023-07-29T07:11:34;101842.88;;;21.26;100.00
54808;BME280;40708;50.364;7.550;2023-07-29T07:14:00;101834.38;;;22.21;100.00
54808;BME280;40708;50.364;7.550;2023-07-29T07:16:25;101721.38;;;23.24;100.00
54808;BME280;40708;50.364;7.550;2023-07-29T07:18:51;101313.59;;;23.20;100.00
54808;BME280;40708;50.364;7.550;2023-07-29T07:21:16;101042.09;;;22.96;100.00
54808;BME280;40708;50.364;7.550;2023-07-29T07:23:41;100916.31;;;22.62;100.00
54808;BME280;40708;50.364;7.550;2023-07-29T07:26:07;100899.13;;;22.64;100.00
54808;BME280;40708;50.364;7.550;2023-07-29T07:28:32;100863.13;;;22.84;100.00
54808;BME280;40708;50.364;7.550;2023-07-29T07:30:57;100790.66;;;23.10;100.00
54808;BME280;40708;50.364;7.550;2023-07-29T07:33:23;100709.00;;;23.94;100.00
54808;BME280;40708;50.364;7.550;2023-07-29T07:35:48;100513.66;;;24.64;100.00
54808;BME280;40708;50.364;7.550;2023-07-29T07:38:13;100309.75;;;25.02;100.00
54808;BME280;40708;50.364;7.550;2023-07-29T07:40:40;100199.72;;;25.24;100.00
54808;BME280;40708;50.364;7.550;2023-07-29T07:43:05;100141.63;;;26.09;100.00
54808;BME280;40708;50.364;7.550;2023-07-29T07:45:32;100054.03;;;27.53;100.00
54808;BME280;40708;50.364;7.550;2023-07-29T07:47:57;99827.78;;;27.55;100.00
54808;BME280;40708;50.364;7.550;2023-07-29T07:50:23;99788.06;;;27.40;100.00
54808;BME280;40708;50.364;7.550;2023-07-29T07:52:49;99761.03;;;27.03;100.00
54808;BME280;40708;50.364;7.550;2023-07-29T07:55:14;99765.00;;;26.52;100.00
54808;BME280;40708;50.364;7.550;2023-07-29T07:57:40;99769.75;;;26.37;100.00
54808;BME280;40708;50.364;7.550;2023-07-29T08:00:05;99789.53;;;26.03;100.00
54808;BME280;40708;50.364;7.550;2023-07-29T08:02:31;99798.81;;;25.75;100.00
54808;BME280;40708;50.364;7.550;2023-07-29T08:04:56;99796.50;;;25.94;100.00
54808;BME280;40708;50.364;7.550;2023-07-29T08:07:21;99803.00;;;25.29;100.00
54808;BME280;40708;50.364;7.550;2023-07-29T08:09:47;99838.22;;;25.43;100.00
54808;BME280;40708;50.364;7.550;2023-07-29T08:12:12;99839.59;;;25.36;100.00
54808;BME280;40708;50.364;7.550;2023-07-29T08:14:38;99865.78;;;24.98;100.00
54808;BME280;40708;50.364;7.550;2023-07-29T08:17:03;99891.38;;;24.81;100.00
54808;BME280;40708;50.364;7.550;2023-07-29T08:19:28;99902.69;;;24.73;100.00
54808;BME280;40708;50.364;7.550;2023-07-29T08:21:54;99885.22;;;25.70;100.00
54808;BME280;40708;50.364;7.550;2023-07-29T08:24:19;99857.47;;;26.03;100.00
54808;BME280;40708;50.364;7.550;2023-07-29T08:26:44;99846.25;;;26.33;100.00
54808;BME280;40708;50.364;7.550;2023-07-29T08:29:12;99829.59;;;26.61;100.00
54808;BME280;40708;50.364;7.550;2023-07-29T08:31:38;99829.19;;;26.06;100.00
54808;BME280;40708;50.364;7.550;2023-07-29T08:34:04;99855.97;;;25.61;100.00
54808;BME280;40708;50.364;7.550;2023-07-29T08:36:29;99806.88;;;25.52;100.00
54808;BME280;40708;50.364;7.550;2023-07-29T08:38:54;99826.69;;;25.27;100.00
54808;BME280;40708;50.364;7.550;2023-07-29T08:41:25;99833.66;;;25.43;100.00
54808;BME280;40708;50.364;7.550;2023-07-29T08:44:06;99834.44;;;25.06;100.00
54808;BME280;40708;50.364;7.550;2023-07-29T08:46:34;99885.19;;;24.65;100.00
54808;BME280;40708;50.364;7.550;2023-07-29T08:49:00;99906.59;;;24.69;100.00
54808;BME280;40708;50.364;7.550;2023-07-29T08:51:27;99976.75;;;24.33;100.00
54808;BME280;40708;50.364;7.550;2023-07-29T08:53:53;100059.63;;;23.93;100.00
54808;BME280;40708;50.364;7.550;2023-07-29T08:56:18;100075.19;;;23.44;100.00
54808;BME280;40708;50.364;7.550;2023-07-29T08:58:44;100058.63;;;23.64;100.00
54808;BME280;40708;50.364;7.550;2023-07-29T09:01:10;100083.72;;;23.68;100.00
54808;BME280;40708;50.364;7.550;2023-07-29T09:03:36;100089.31;;;23.65;100.00
54808;BME280;40708;50.364;7.550;2023-07-29T09:06:02;100097.81;;;23.59;100.00
54808;BME280;40708;50.364;7.550;2023-07-29T09:08:28;100150.88;;;23.15;100.00
54808;BME280;40708;50.364;7.550;2023-07-29T09:10:54;100242.28;;;22.75;100.00
54808;BME280;40708;50.364;7.550;2023-07-29T09:13:20;100415.13;;;22.07;100.00
54808;BME280;40708;50.364;7.550;2023-07-29T09:15:46;100587.34;;;22.02;100.00
54808;BME280;40708;50.364;7.550;2023-07-29T09:18:15;100618.56;;;21.67;100.00
54808;BME280;40708;50.364;7.550;2023-07-29T09:20:41;100631.94;;;21.48;100.00
54808;BME280;40708;50.364;7.550;2023-07-29T09:23:08;100673.81;;;21.36;100.00
54808;BME280;40708;50.364;7.550;2023-07-29T09:25:37;100744.81;;;21.15;100.00
54808;BME280;40708;50.364;7.550;2023-07-29T09:28:13;100801.03;;;21.03;100.00
54808;BME280;40708;50.364;7.550;2023-07-29T09:30:40;100887.94;;;20.86;100.00
54808;BME280;40708;50.364;7.550;2023-07-29T09:33:06;100928.56;;;20.82;100.00
54808;BME280;40708;50.364;7.550;2023-07-29T09:35:33;100973.94;;;20.95;100.00
54808;BME280;40708;50.364;7.550;2023-07-29T09:37:59;101024.72;;;21.10;100.00
54808;BME280;40708;50.364;7.550;2023-07-29T09:40:25;101044.56;;;21.34;100.00
54808;BME280;40708;50.364;7.550;2023-07-29T09:42:52;100990.81;;;21.53;100.00
54808;BME280;40708;50.364;7.550;2023-07-29T09:45:20;100925.50;;;21.66;100.00
54808;BME280;40708;50.364;7.550;2023-07-29T09:47:46;100879.44;;;21.94;100.00
54808;BME280;40708;50.364;7.550;2023-07-29T09:50:12;100822.13;;;22.09;100.00
54808;BME280;40708;50.364;7.550;2023-07-29T09:52:37;100808.59;;;22.51;100.00
54808;BME280;40708;50.364;7.550;2023-07-29T09:55:03;100693.63;;;22.63;100.00
54808;BME280;40708;50.364;7.550;2023-07-29T09:57:29;100632.31;;;22.43;100.00
54808;BME280;40708;50.364;7.550;2023-07-29T09:59:55;100712.22;;;22.30;100.00
54808;BME280;40708;50.364;7.550;2023-07-29T10:02:25;100672.59;;;22.29;100.00
54808;BME280;40708;50.364;7.550;2023-07-29T10:04:54;100642.75;;;22.32;100.00
54808;BME280;40708;50.364;7.550;2023-07-29T10:07:20;100597.22;;;22.03;100.00
54808;BME280;40708;50.364;7.550;2023-07-29T10:09:46;100658.56;;;22.01;100.00
54808;BME280;40708;50.364;7.550;2023-07-29T10:12:13;100646.56;;;21.64;100.00
54808;BME280;40708;50.364;7.550;2023-07-29T10:14:38;100691.47;;;21.67;100.00
54808;BME280;40708;50.364;7.550;2023-07-29T10:17:05;100667.63;;;22.20;100.00
54808;BME280;40708;50.364;7.550;2023-07-29T10:19:31;100589.38;;;22.76;100.00
54808;BME280;40708;50.364;7.550;2023-07-29T10:21:59;100502.53;;;23.18;100.00
54808;BME280;40708;50.364;7.550;2023-07-29T10:24:29;100425.16;;;23.65;100.00
54808;BME280;40708;50.364;7.550;2023-07-29T10:27:00;100284.47;;;23.62;100.00
54808;BME280;40708;50.364;7.550;2023-07-29T10:29:30;100226.19;;;23.86;100.00
54808;BME280;40708;50.364;7.550;2023-07-29T10:31:57;100178.66;;;24.12;100.00
54808;BME280;40708;50.364;7.550;2023-07-29T10:34:24;100141.94;;;24.80;100.00
54808;BME280;40708;50.364;7.550;2023-07-29T10:36:50;100061.75;;;25.17;100.00
54808;BME280;40708;50.364;7.550;2023-07-29T10:39:16;100031.84;;;25.31;100.00
54808;BME280;40708;50.364;7.550;2023-07-29T10:41:58;99962.47;;;25.39;100.00
54808;BME280;40708;50.364;7.550;2023-07-29T10:47:14;99868.97;;;26.07;100.00
54808;BME280;40708;50.364;7.550;2023-07-29T10:49:44;99814.72;;;26.30;100.00
54808;BME280;40708;50.364;7.550;2023-07-29T10:52:16;99786.06;;;26.37;100.00
54808;BME280;40708;50.364;7.550;2023-07-29T10:54:52;99777.72;;;26.28;100.00
54808;BME280;40708;50.364;7.550;2023-07-29T10:57:34;99749.94;;;26.59;100.00
54808;BME280;40708;50.364;7.550;2023-07-29T11:00:00;99746.94;;;27.09;100.00
54808;BME280;40708;50.364;7.550;2023-07-29T11:02:34;99724.09;;;27.45;100.00
54808;BME280;40708;50.364;7.550;2023-07-29T11:05:05;99702.03;;;27.37;100.00
54808;BME280;40708;50.364;7.550;2023-07-29T11:07:31;99703.78;;;27.83;100.00
54808;BME280;40708;50.364;7.550;2023-07-29T11:10:00;99684.06;;;27.35;100.00
54808;BME280;40708;50.364;7.550;2023-07-29T11:12:45;99691.16;;;26.80;100.00
54808;BME280;40708;50.364;7.550;2023-07-29T11:17:52;99684.88;;;26.80;100.00
54808;BME280;40708;50.364;7.550;2023-07-29T11:20:20;99692.16;;;26.55;100.00
54808;BME280;40708;50.364;7.550;2023-07-29T11:22:46;99685.72;;;26.45;100.00
54808;BME280;40708;50.364;7.550;2023-07-29T11:25:14;99700.38;;;26.32;100.00
54808;BME280;40708;50.364;7.550;2023-07-29T11:27:40;99704.41;;;26.26;100.00
54808;BME280;40708;50.364;7.550;2023-07-29T11:30:08;99702.06;;;26.22;100.00
54808;BME280;40708;50.364;7.550;2023-07-29T11:32:35;99705.22;;;26.16;100.00
54808;BME280;40708;50.364;7.550;2023-07-29T11:35:11;99696.69;;;25.96;100.00
54808;BME280;40708;50.364;7.550;2023-07-29T11:37:37;99702.75;;;25.76;100.00
54808;BME280;40708;50.364;7.550;2023-07-29T11:40:03;99704.28;;;25.55;100.00
54808;BME280;40708;50.364;7.550;2023-07-29T11:42:32;99709.66;;;25.80;100.00
54808;BME280;40708;50.364;7.550;2023-07-29T11:44:58;99706.59;;;25.49;100.00
54808;BME280;40708;50.364;7.550;2023-07-29T11:47:24;99700.38;;;25.47;100.00
54808;BME280;40708;50.364;7.550;2023-07-29T11:49:49;99689.38;;;25.61;100.00
54808;BME280;40708;50.364;7.550;2023-07-29T11:52:15;99687.78;;;25.94;100.00
54808;BME280;40708;50.364;7.550;2023-07-29T11:54:44;99667.28;;;26.38;100.00
54808;BME280;40708;50.364;7.550;2023-07-29T11:57:09;99666.44;;;26.48;100.00
54808;BME280;40708;50.364;7.550;2023-07-29T11:59:36;99673.16;;;26.32;100.00
54808;BME280;40708;50.364;7.550;2023-07-29T12:02:05;99676.56;;;26.23;100.00
54808;BME280;40708;50.364;7.550;2023-07-29T12:04:33;99679.91;;;26.50;100.00
54808;BME280;40708;50.364;7.550;2023-07-29T12:06:59;99674.16;;;26.66;100.00
54808;BME280;40708;50.364;7.550;2023-07-29T12:09:26;99673.72;;;26.48;100.00
54808;BME280;40708;50.364;7.550;2023-07-29T12:11:52;99674.16;;;26.66;100.00
54808;BME280;40708;50.364;7.550;2023-07-29T12:14:17;99668.22;;;26.72;100.00
54808;BME280;40708;50.364;7.550;2023-07-29T12:16:43;99657.97;;;26.75;100.00
54808;BME280;40708;50.364;7.550;2023-07-29T12:19:12;99655.13;;;26.66;100.00
54808;BME280;40708;50.364;7.550;2023-07-29T12:21:37;99649.88;;;26.51;100.00
54808;BME280;40708;50.364;7.550;2023-07-29T12:24:03;99650.44;;;26.33;100.00
54808;BME280;40708;50.364;7.550;2023-07-29T12:26:29;99664.59;;;26.01;100.00
54808;BME280;40708;50.364;7.550;2023-07-29T12:28:54;99668.47;;;26.10;100.00
54808;BME280;40708;50.364;7.550;2023-07-29T12:31:21;99668.31;;;26.00;100.00
54808;BME280;40708;50.364;7.550;2023-07-29T12:33:47;99679.28;;;25.99;100.00
54808;BME280;40708;50.364;7.550;2023-07-29T12:36:12;99689.06;;;25.65;100.00
54808;BME280;40708;50.364;7.550;2023-07-29T12:38:37;99684.84;;;25.23;100.00
54808;BME280;40708;50.364;7.550;2023-07-29T12:41:02;99695.06;;;25.32;100.00
54808;BME280;40708;50.364;7.550;2023-07-29T12:43:28;99705.69;;;24.98;100.00
54808;BME280;40708;50.364;7.550;2023-07-29T12:45:54;99694.84;;;25.23;100.00
54808;BME280;40708;50.364;7.550;2023-07-29T12:48:19;99692.34;;;25.32;100.00